Time;durP1;ratioP1;P1;durP2;ratioP2;P2;SDS_P1;SDS_P2;PMS_P1;PMS_P2;Temp;Humidity;BMP_temperature;BMP_pressure;BME280_temperature;BME280_humidity;BME280_pressure;Samples;Min_cycle;Max_cycle;Signal;HPM_P1;HPM_P2
2022/05/08 00:00:56;;;;;;;;;;;;;;;22.17;34.18;102224.63;2099737;28;830;-59
2022/05/08 00:01:57;;;;;;;;;;;;;;;22.16;34.68;102225.56;2099782;28;853;-59
2022/05/08 00:02:58;;;;;;;;;;;;;;;22.16;34.40;102230.97;2099742;28;1024;-59
2022/05/08 00:03:58;;;;;;;;;;;;;;;22.15;34.48;102220.19;2099765;28;846;-59
2022/05/08 00:04:58;;;;;;;;;;;;;;;22.15;34.39;102229.19;2099840;28;815;-59
2022/05/08 00:06:00;;;;;;;;;;;;;;;22.14;34.60;102232.78;2099695;28;1044;-59
2022/05/08 00:07:00;;;;;;;;;;;;;;;22.14;34.54;102224.69;2099748;28;807;-59
2022/05/08 00:08:00;;;;;;;;;;;;;;;22.13;35.32;102219.34;2098962;28;2244;-59
2022/05/08 00:09:00;;;;;;;;;;;;;;;22.12;35.25;102217.56;2099128;28;841;-59
2022/05/08 00:10:00;;;;;;;;;;;;;;;22.12;34.50;102222.97;2099646;28;847;-59
2022/05/08 00:11:00;;;;;;;;;;;;;;;22.11;34.68;102219.34;2099674;28;1012;-59
2022/05/08 00:12:01;;;;;;;;;;;;;;;22.11;34.75;102229.28;2099696;28;748;-59
2022/05/08 00:13:01;;;;;;;;;;;;;;;22.10;34.84;102231.06;2099648;28;977;-59
2022/05/08 00:14:01;;;;;;;;;;;;;;;22.10;35.21;102231.06;2099681;28;1026;-59
2022/05/08 00:15:01;;;;;;;;;;;;;;;22.10;34.43;102228.38;2098961;28;1158;-59
2022/05/08 00:16:02;;;;;;;;;;;;;;;22.09;34.57;102239.19;2099042;28;1076;-59
2022/05/08 00:17:02;;;;;;;;;;;;;;;22.08;34.48;102234.72;2099665;28;862;-59
2022/05/08 00:18:03;;;;;;;;;;;;;;;22.08;34.47;102232.91;2099605;28;969;-59
2022/05/08 00:19:03;;;;;;;;;;;;;;;22.08;34.31;102238.28;2099633;28;777;-59
2022/05/08 00:20:04;;;;;;;;;;;;;;;22.08;34.65;102237.41;2099654;28;1160;-59
2022/05/08 00:21:05;;;;;;;;;;;;;;;22.08;34.56;102250.91;2100555;28;1056;-59
2022/05/08 00:22:06;;;;;;;;;;;;;;;22.07;34.95;102250.03;2100671;28;607;-59
2022/05/08 00:23:06;;;;;;;;;;;;;;;22.05;34.47;102246.47;2099610;28;799;-59
2022/05/08 00:24:06;;;;;;;;;;;;;;;22.06;34.52;102242.88;2099578;28;1016;-59
2022/05/08 00:25:07;;;;;;;;;;;;;;;22.05;34.64;102244.66;2099604;28;803;-59
2022/05/08 00:26:08;;;;;;;;;;;;;;;22.04;35.28;102248.28;2099390;28;1279;-59
2022/05/08 00:27:08;;;;;;;;;;;;;;;22.05;35.17;102249.19;2099733;28;526;-59
2022/05/08 00:28:08;;;;;;;;;;;;;;;22.05;34.59;102251.88;2099436;28;1906;-59
2022/05/08 00:29:10;;;;;;;;;;;;;;;22.04;34.29;102252.78;2099404;28;973;-59
2022/05/08 00:30:11;;;;;;;;;;;;;;;22.04;34.35;102260.88;2099574;28;847;-59
2022/05/08 00:31:11;;;;;;;;;;;;;;;22.03;35.23;102253.72;2099540;28;839;-59
2022/05/08 00:32:11;;;;;;;;;;;;;;;22.02;34.39;102258.19;2099599;28;819;-59
2022/05/08 00:33:12;;;;;;;;;;;;;;;22.02;34.53;102255.50;2099552;28;878;-59
2022/05/08 00:34:12;;;;;;;;;;;;;;;22.01;35.17;102259.13;2099607;28;751;-59
2022/05/08 00:35:12;;;;;;;;;;;;;;;22.02;34.78;102262.72;2099532;28;1036;-59
2022/05/08 00:36:12;;;;;;;;;;;;;;;22.02;34.17;102270.81;2099526;28;860;-59
2022/05/08 00:37:12;;;;;;;;;;;;;;;22.02;35.04;102276.22;2099605;28;1269;-59
2022/05/08 00:38:12;;;;;;;;;;;;;;;22.01;34.80;102275.31;2099518;28;1016;-59
2022/05/08 00:39:13;;;;;;;;;;;;;;;22.01;34.62;102274.44;2098894;28;796;-59
2022/05/08 00:40:13;;;;;;;;;;;;;;;22.00;34.21;102270.81;2098904;28;908;-59
2022/05/08 00:41:13;;;;;;;;;;;;;;;21.99;35.39;102277.13;2099522;28;787;-59
2022/05/08 00:42:14;;;;;;;;;;;;;;;22.00;34.19;102281.63;2099524;28;973;-59
2022/05/08 00:43:28;;;;;;;;;;;;;;;22.01;34.34;102286.09;2099493;28;1043;-59
2022/05/08 00:44:28;;;;;;;;;;;;;;;21.99;34.40;102285.22;2099477;28;862;-59
2022/05/08 00:45:31;;;;;;;;;;;;;;;21.98;34.57;102282.56;2099510;28;826;-59
2022/05/08 00:46:32;;;;;;;;;;;;;;;21.98;34.23;102280.75;2099619;28;760;-59
2022/05/08 00:47:32;;;;;;;;;;;;;;;21.97;34.64;102278.09;2099586;28;937;-59
2022/05/08 00:48:33;;;;;;;;;;;;;;;21.98;34.45;102280.75;2098718;28;1897;-59
2022/05/08 00:49:33;;;;;;;;;;;;;;;21.97;34.46;102287.06;2098892;28;784;-59
2022/05/08 00:50:33;;;;;;;;;;;;;;;21.97;34.08;102278.97;2099637;28;909;-59
2022/05/08 00:51:35;;;;;;;;;;;;;;;21.96;34.27;102277.19;2099447;28;1027;-59
2022/05/08 00:52:35;;;;;;;;;;;;;;;21.96;34.20;102270.91;2099384;28;799;-59
2022/05/08 00:53:37;;;;;;;;;;;;;;;21.96;34.86;102277.19;2099457;28;1023;-59
2022/05/08 00:54:37;;;;;;;;;;;;;;;21.95;34.87;102278.09;2099670;28;849;-59
2022/05/08 00:55:38;;;;;;;;;;;;;;;21.94;34.19;102272.75;2099442;28;835;-59
2022/05/08 00:56:38;;;;;;;;;;;;;;;21.94;34.07;102281.72;2098773;28;949;-59
2022/05/08 00:57:42;;;;;;;;;;;;;;;21.96;34.74;102276.31;2098872;28;810;-59
2022/05/08 00:58:43;;;;;;;;;;;;;;;21.95;34.25;102279.91;2099481;28;799;-59
2022/05/08 00:59:44;;;;;;;;;;;;;;;21.95;34.70;102271.81;2099397;28;850;-59
2022/05/08 01:00:44;;;;;;;;;;;;;;;21.94;34.35;102284.41;2099461;28;775;-59
2022/05/08 01:01:44;;;;;;;;;;;;;;;21.94;34.06;102284.41;2099404;28;857;-59
2022/05/08 01:02:46;;;;;;;;;;;;;;;21.94;34.82;102284.41;2098755;28;972;-59
2022/05/08 01:03:46;;;;;;;;;;;;;;;21.94;34.59;102283.53;2098835;28;854;-59
2022/05/08 01:04:46;;;;;;;;;;;;;;;21.94;33.99;102283.53;2099409;28;798;-59
2022/05/08 01:05:48;;;;;;;;;;;;;;;21.95;34.49;102282.63;2099448;28;897;-59
2022/05/08 01:06:49;;;;;;;;;;;;;;;21.95;34.26;102285.31;2100697;28;1059;-59
2022/05/08 01:07:49;;;;;;;;;;;;;;;21.93;34.00;102288.03;2099372;28;1894;-59
2022/05/08 01:08:50;;;;;;;;;;;;;;;21.92;34.28;102287.16;2099405;28;759;-59
2022/05/08 01:09:50;;;;;;;;;;;;;;;21.93;34.44;102288.03;2099337;28;989;-59
2022/05/08 01:10:52;;;;;;;;;;;;;;;21.94;34.61;102291.63;2099444;28;1047;-59
2022/05/08 01:11:53;;;;;;;;;;;;;;;21.93;33.77;102293.41;2099375;28;782;-59
2022/05/08 01:12:53;;;;;;;;;;;;;;;21.93;34.16;102301.50;2099433;28;1031;-59
2022/05/08 01:13:54;;;;;;;;;;;;;;;21.92;34.42;102295.25;2099369;28;783;-59
2022/05/08 01:15:13;;;;;;;;;;;;;;;21.92;34.22;102297.94;2099329;28;992;-59
2022/05/08 01:16:17;;;;;;;;;;;;;;;21.92;33.91;102295.25;2099371;28;882;-59
2022/05/08 01:17:17;;;;;;;;;;;;;;;21.91;34.78;102301.56;2099407;28;984;-59
2022/05/08 01:18:17;;;;;;;;;;;;;;;21.90;33.72;102298.88;2099400;28;826;-59
2022/05/08 01:19:17;;;;;;;;;;;;;;;21.90;34.37;102301.56;2099316;28;791;-59
2022/05/08 01:20:18;;;;;;;;;;;;;;;21.91;33.66;102308.75;2099376;28;957;-59
2022/05/08 01:21:22;;;;;;;;;;;;;;;21.90;34.49;102304.25;2099340;28;1036;-59
2022/05/08 01:22:22;;;;;;;;;;;;;;;21.90;33.63;102299.78;2099489;28;811;-59
2022/05/08 01:23:22;;;;;;;;;;;;;;;21.89;33.95;102308.78;2098621;28;1293;-59
2022/05/08 01:24:22;;;;;;;;;;;;;;;21.89;34.66;102305.16;2098725;28;1134;-59
2022/05/08 01:25:23;;;;;;;;;;;;;;;21.90;33.65;102304.25;2099364;28;763;-59
2022/05/08 01:26:23;;;;;;;;;;;;;;;21.89;33.74;102303.38;2099154;28;1223;-59
2022/05/08 01:27:23;;;;;;;;;;;;;;;21.89;34.04;102305.16;2099383;28;743;-59
2022/05/08 01:28:24;;;;;;;;;;;;;;;21.89;33.67;102305.16;2099221;28;1909;-59
2022/05/08 01:29:24;;;;;;;;;;;;;;;21.87;34.40;102307.91;2099467;28;728;-59
2022/05/08 01:30:25;;;;;;;;;;;;;;;21.88;33.50;102311.47;2099365;28;854;-59
2022/05/08 01:31:25;;;;;;;;;;;;;;;21.89;33.83;102307.88;2099293;28;846;-59
2022/05/08 01:32:25;;;;;;;;;;;;;;;21.88;33.92;102304.31;2099299;28;886;-59
2022/05/08 01:33:26;;;;;;;;;;;;;;;21.87;34.26;102307.91;2099302;28;1012;-59
2022/05/08 01:34:26;;;;;;;;;;;;;;;21.86;33.54;102313.31;2099252;28;913;-59
2022/05/08 01:35:27;;;;;;;;;;;;;;;21.87;33.42;102310.59;2099309;28;862;-59
2022/05/08 01:36:27;;;;;;;;;;;;;;;21.88;33.57;102314.19;2099263;28;886;-59
2022/05/08 01:37:27;;;;;;;;;;;;;;;21.88;33.54;102316.88;2099280;28;1008;-59
2022/05/08 01:38:28;;;;;;;;;;;;;;;21.87;33.70;102313.31;2099290;28;830;-59
2022/05/08 01:39:28;;;;;;;;;;;;;;;21.87;33.44;102318.69;2099436;28;851;-59
2022/05/08 01:40:30;;;;;;;;;;;;;;;21.86;33.66;102316.91;2099452;28;823;-59
2022/05/08 01:41:30;;;;;;;;;;;;;;;21.86;33.44;102313.31;2100810;28;830;-59
2022/05/08 01:42:30;;;;;;;;;;;;;;;21.86;33.82;102316.00;2101042;28;1007;-59
2022/05/08 01:43:37;;;;;;;;;;;;;;;21.84;33.46;102315.13;2100833;28;819;-59
2022/05/08 01:44:37;;;;;;;;;;;;;;;21.84;33.26;102312.44;2100884;28;851;-59
2022/05/08 01:45:38;;;;;;;;;;;;;;;21.85;33.64;102319.63;2100796;28;813;-59
2022/05/08 01:46:38;;;;;;;;;;;;;;;21.85;33.11;102316.94;2100847;28;938;-59
2022/05/08 01:48:57;;;;;;;;;;;;;;;21.87;33.47;102316.00;2100947;28;594;-59
2022/05/08 01:49:58;;;;;;;;;;;;;;;21.85;33.37;102312.44;2100858;28;830;-59
2022/05/08 01:50:59;;;;;;;;;;;;;;;21.85;33.12;102311.53;2100739;28;1032;-59
2022/05/08 01:51:59;;;;;;;;;;;;;;;21.84;33.66;102316.06;2101343;28;1865;-59
2022/05/08 01:52:59;;;;;;;;;;;;;;;21.85;33.78;102314.22;2101381;28;902;-59
2022/05/08 01:54:01;;;;;;;;;;;;;;;21.85;33.59;102312.44;2100756;28;906;-59
2022/05/08 01:55:01;;;;;;;;;;;;;;;21.86;32.90;102318.72;2100797;28;841;-59
2022/05/08 01:56:05;;;;;;;;;;;;;;;21.86;33.19;102319.63;2100746;28;801;-59
2022/05/08 01:57:05;;;;;;;;;;;;;;;21.86;33.31;102326.81;2100797;28;818;-59
2022/05/08 01:58:05;;;;;;;;;;;;;;;21.85;33.52;102325.03;2099978;28;1095;-59
2022/05/08 01:59:05;;;;;;;;;;;;;;;21.85;33.00;102325.94;2100122;28;846;-59
2022/05/08 02:00:06;;;;;;;;;;;;;;;21.84;32.92;102331.31;2100693;28;858;-59
2022/05/08 02:01:08;;;;;;;;;;;;;;;21.83;33.06;102334.94;2100636;28;1094;-59
2022/05/08 02:02:08;;;;;;;;;;;;;;;21.84;33.49;102328.63;2100685;28;763;-59
2022/05/08 02:03:08;;;;;;;;;;;;;;;21.83;33.08;102333.16;2100614;28;771;-59
2022/05/08 02:04:15;;;;;;;;;;;;;;;21.84;32.84;102334.94;2100700;28;905;-59
2022/05/08 02:05:16;;;;;;;;;;;;;;;21.85;33.69;102342.13;2100725;28;838;-59
2022/05/08 02:06:17;;;;;;;;;;;;;;;21.85;33.02;102338.50;2100635;28;783;-59
2022/05/08 02:07:17;;;;;;;;;;;;;;;21.85;33.85;102338.50;2100688;28;626;-59
2022/05/08 02:08:17;;;;;;;;;;;;;;;21.84;33.10;102345.72;2100580;28;1886;-59
2022/05/08 02:09:18;;;;;;;;;;;;;;;21.85;32.78;102341.19;2100700;28;1032;-59
2022/05/08 02:10:18;;;;;;;;;;;;;;;21.84;33.55;102342.13;2100622;28;760;-59
2022/05/08 02:11:18;;;;;;;;;;;;;;;21.83;33.00;102343.03;2100704;28;759;-59
2022/05/08 02:12:18;;;;;;;;;;;;;;;21.82;33.35;102339.47;2100756;28;803;-59
2022/05/08 02:13:18;;;;;;;;;;;;;;;21.84;32.97;102347.50;2100621;28;1035;-59
2022/05/08 02:14:19;;;;;;;;;;;;;;;21.85;32.99;102343.91;2100015;28;855;-59
2022/05/08 02:15:19;;;;;;;;;;;;;;;21.84;33.11;102344.81;2099977;28;1024;-59
2022/05/08 02:16:19;;;;;;;;;;;;;;;21.83;32.72;102340.34;2100564;28;1005;-59
2022/05/08 02:17:22;;;;;;;;;;;;;;;21.83;33.33;102340.34;2100889;28;806;-59
2022/05/08 02:18:22;;;;;;;;;;;;;;;21.83;32.61;102340.34;2100568;28;834;-59
2022/05/08 02:19:22;;;;;;;;;;;;;;;21.82;32.67;102343.94;2100688;28;768;-59
2022/05/08 02:20:22;;;;;;;;;;;;;;;21.82;33.15;102350.25;2100564;28;831;-59
2022/05/08 02:21:23;;;;;;;;;;;;;;;21.83;32.60;102337.63;2100557;28;1004;-59
2022/05/08 02:22:23;;;;;;;;;;;;;;;21.83;33.27;102345.72;2100583;28;874;-59
2022/05/08 02:23:23;;;;;;;;;;;;;;;21.83;33.22;102340.34;2100505;28;764;-59
2022/05/08 02:24:24;;;;;;;;;;;;;;;21.83;32.65;102340.34;2099871;28;1013;-59
2022/05/08 02:25:25;;;;;;;;;;;;;;;21.83;32.60;102341.25;2099905;28;969;-59
2022/05/08 02:26:25;;;;;;;;;;;;;;;21.82;33.39;102339.47;2099642;28;1378;-59
2022/05/08 02:27:25;;;;;;;;;;;;;;;21.81;32.49;102337.69;2099926;28;760;-59
2022/05/08 02:28:25;;;;;;;;;;;;;;;21.82;32.40;102341.25;2100418;28;1963;-59
2022/05/08 02:29:25;;;;;;;;;;;;;;;21.82;32.75;102344.84;2100550;28;803;-59
2022/05/08 02:30:26;;;;;;;;;;;;;;;21.81;32.40;102344.84;2100476;28;929;-59
2022/05/08 02:31:26;;;;;;;;;;;;;;;21.81;32.98;102345.78;2100505;28;814;-59
2022/05/08 02:32:26;;;;;;;;;;;;;;;21.81;32.92;102336.75;2100475;28;997;-59
2022/05/08 02:33:26;;;;;;;;;;;;;;;21.82;33.32;102343.94;2100448;28;981;-59
2022/05/08 02:34:26;;;;;;;;;;;;;;;21.82;32.54;102346.66;2100481;28;766;-59
2022/05/08 02:35:26;;;;;;;;;;;;;;;21.82;32.78;102346.66;2101349;28;890;-59
2022/05/08 02:36:27;;;;;;;;;;;;;;;21.83;33.19;102351.13;2099768;28;1052;-59
2022/05/08 02:37:27;;;;;;;;;;;;;;;21.82;33.24;102349.34;2099721;28;1329;-59
2022/05/08 02:38:27;;;;;;;;;;;;;;;21.82;32.41;102346.66;2100404;28;841;-59
2022/05/08 02:39:27;;;;;;;;;;;;;;;21.82;32.43;102346.66;2100436;28;898;-59
2022/05/08 02:40:27;;;;;;;;;;;;;;;21.81;33.22;102347.56;2100408;28;980;-59
2022/05/08 02:41:28;;;;;;;;;;;;;;;21.80;32.51;102348.47;2100446;28;1051;-59
2022/05/08 02:42:28;;;;;;;;;;;;;;;21.81;32.83;102339.47;2100390;28;830;-59
2022/05/08 02:43:28;;;;;;;;;;;;;;;21.81;32.62;102347.56;2100400;28;760;-59
2022/05/08 02:44:28;;;;;;;;;;;;;;;21.81;32.40;102356.56;2100382;28;670;-58
2022/05/08 02:45:28;;;;;;;;;;;;;;;21.82;33.01;102354.72;2100368;28;985;-59
2022/05/08 02:46:28;;;;;;;;;;;;;;;21.81;32.37;102358.34;2099852;28;1402;-59
2022/05/08 02:47:29;;;;;;;;;;;;;;;21.81;32.48;102355.66;2099719;28;1033;-59
2022/05/08 02:48:29;;;;;;;;;;;;;;;21.81;32.85;102355.66;2100282;28;1886;-59
2022/05/08 02:49:29;;;;;;;;;;;;;;;21.80;32.25;102353.88;2100304;28;922;-59
2022/05/08 02:50:29;;;;;;;;;;;;;;;21.80;32.25;102349.38;2100370;28;1004;-59
2022/05/08 02:51:29;;;;;;;;;;;;;;;21.80;32.81;102348.47;2100170;28;1051;-59
2022/05/08 02:52:29;;;;;;;;;;;;;;;21.81;32.76;102358.34;2100361;28;790;-59
2022/05/08 02:53:29;;;;;;;;;;;;;;;21.80;32.20;102356.56;2100340;28;981;-59
2022/05/08 02:54:29;;;;;;;;;;;;;;;21.80;32.21;102356.56;2100331;28;991;-59
2022/05/08 02:59:26;;;;;;;;;;;;;;;21.80;32.84;102368.25;2100295;28;704;-59
2022/05/08 03:00:26;;;;;;;;;;;;;;;21.80;32.14;102372.75;2100316;28;1051;-59
2022/05/08 03:01:26;;;;;;;;;;;;;;;21.80;32.12;102375.44;2100273;28;995;-59
2022/05/08 03:02:26;;;;;;;;;;;;;;;21.80;32.11;102378.13;2100245;28;973;-59
2022/05/08 03:03:27;;;;;;;;;;;;;;;21.79;32.45;102376.34;2100270;28;846;-59
2022/05/08 03:04:27;;;;;;;;;;;;;;;21.79;31.86;102377.25;2100212;28;1043;-59
2022/05/08 03:05:27;;;;;;;;;;;;;;;21.79;32.60;102368.25;2100369;28;897;-59
2022/05/08 03:06:27;;;;;;;;;;;;;;;21.78;32.17;102362.00;2100254;28;693;-59
2022/05/08 03:07:29;;;;;;;;;;;;;;;21.78;32.45;102359.28;2100200;28;909;-59
2022/05/08 03:08:29;;;;;;;;;;;;;;;21.79;32.05;102358.38;2100143;28;1945;-59
2022/05/08 03:09:29;;;;;;;;;;;;;;;21.80;31.87;102372.75;2100164;28;906;-59
2022/05/08 03:11:25;;;;;;;;;;;;;;;21.80;31.94;102375.44;2100214;28;948;-59
2022/05/08 03:11:49;;;;;;;;;;;;;;;21.79;32.19;102370.97;2100022;28;1735;-59
2022/05/08 03:12:49;;;;;;;;;;;;;;;21.79;32.21;102381.75;2100316;28;826;-59
2022/05/08 03:13:50;;;;;;;;;;;;;;;21.79;32.13;102376.34;2100191;28;759;-59
2022/05/08 03:14:51;;;;;;;;;;;;;;;21.78;32.84;102378.19;2100085;28;1088;-59
2022/05/08 03:15:51;;;;;;;;;;;;;;;21.77;32.81;102377.31;2100105;28;920;-60
2022/05/08 03:16:51;;;;;;;;;;;;;;;21.76;32.44;102367.44;2099929;28;1024;-59
2022/05/08 03:17:52;;;;;;;;;;;;;;;21.77;32.06;102376.41;2100240;28;1072;-59
2022/05/08 03:18:53;;;;;;;;;;;;;;;21.77;32.67;102373.69;2100165;28;822;-59
2022/05/08 03:19:53;;;;;;;;;;;;;;;21.77;32.45;102377.31;2100085;28;1040;-59
2022/05/08 03:20:53;;;;;;;;;;;;;;;21.78;32.81;102375.47;2100162;28;783;-59
2022/05/08 03:21:54;;;;;;;;;;;;;;;21.78;32.13;102375.47;2100079;28;992;-59
2022/05/08 03:22:54;;;;;;;;;;;;;;;21.77;31.86;102388.09;2100115;28;810;-59
2022/05/08 03:23:54;;;;;;;;;;;;;;;21.78;32.09;102375.47;2100055;28;752;-59
2022/05/08 03:24:54;;;;;;;;;;;;;;;21.79;31.98;102376.34;2100057;28;747;-59
2022/05/08 03:25:54;;;;;;;;;;;;;;;21.78;32.00;102375.47;2100089;28;858;-59
2022/05/08 03:26:56;;;;;;;;;;;;;;;21.79;32.52;102379.06;2099887;28;1101;-59
2022/05/08 03:27:56;;;;;;;;;;;;;;;21.77;32.65;102380.00;2100003;28;1913;-59
2022/05/08 03:28:57;;;;;;;;;;;;;;;21.76;32.58;102378.22;2100014;28;984;-59
2022/05/08 03:29:58;;;;;;;;;;;;;;;21.76;32.51;102382.69;2100015;28;1051;-59
2022/05/08 03:31:04;;;;;;;;;;;;;;;21.77;31.88;102376.41;2100015;28;824;-59
2022/05/08 03:32:06;;;;;;;;;;;;;;;21.77;32.25;102381.78;2099377;28;1807;-59
2022/05/08 03:33:06;;;;;;;;;;;;;;;21.77;31.72;102388.09;2099388;28;806;-59
2022/05/08 03:34:07;;;;;;;;;;;;;;;21.77;32.39;102387.19;2099965;28;837;-59
2022/05/08 03:35:07;;;;;;;;;;;;;;;21.77;32.19;102390.78;2099982;28;783;-59
2022/05/08 03:36:10;;;;;;;;;;;;;;;21.77;32.36;102390.78;2099917;28;1091;-59
2022/05/08 03:37:10;;;;;;;;;;;;;;;21.76;31.80;102380.91;2100091;28;873;-59
2022/05/08 03:38:10;;;;;;;;;;;;;;;21.75;31.85;102384.53;2100002;28;898;-59
2022/05/08 03:39:13;;;;;;;;;;;;;;;21.76;32.22;102389.00;2100094;28;766;-59
2022/05/08 03:40:13;;;;;;;;;;;;;;;21.75;32.63;102391.72;2099964;28;843;-59
2022/05/08 03:41:15;;;;;;;;;;;;;;;21.75;32.44;102392.63;2099900;28;1040;-59
2022/05/08 03:42:15;;;;;;;;;;;;;;;21.77;32.22;102403.38;2099946;28;814;-59
2022/05/08 03:43:15;;;;;;;;;;;;;;;21.76;31.65;102399.78;2099887;28;874;-59
2022/05/08 03:44:15;;;;;;;;;;;;;;;21.77;32.30;102406.06;2099933;28;771;-59
2022/05/08 03:45:17;;;;;;;;;;;;;;;21.76;31.95;102410.59;2100064;28;834;-59
2022/05/08 03:46:17;;;;;;;;;;;;;;;21.77;32.34;102404.28;2099833;28;854;-59
2022/05/08 03:47:17;;;;;;;;;;;;;;;21.76;31.73;102410.59;2099899;28;897;-59
2022/05/08 03:48:18;;;;;;;;;;;;;;;21.77;32.37;102411.47;2099947;28;1957;-59
2022/05/08 03:49:18;;;;;;;;;;;;;;;21.76;32.59;102406.97;2100004;28;626;-59
2022/05/08 03:50:19;;;;;;;;;;;;;;;21.73;32.38;102409.72;2100012;28;724;-59
2022/05/08 03:51:19;;;;;;;;;;;;;;;21.76;31.86;102412.38;2099816;28;961;-59
2022/05/08 03:52:19;;;;;;;;;;;;;;;21.75;31.61;102413.28;2099853;28;815;-59
2022/05/08 03:53:19;;;;;;;;;;;;;;;21.75;31.94;102415.97;2099953;28;1048;-59
2022/05/08 03:54:19;;;;;;;;;;;;;;;21.75;31.58;102410.59;2100163;28;1048;-59
2022/05/08 03:55:19;;;;;;;;;;;;;;;21.75;31.85;102411.50;2100048;28;997;-60
2022/05/08 03:56:20;;;;;;;;;;;;;;;21.76;31.47;102415.97;2099819;28;1028;-59
2022/05/08 03:57:20;;;;;;;;;;;;;;;21.76;31.66;102421.38;2099819;28;811;-59
2022/05/08 03:58:20;;;;;;;;;;;;;;;21.76;31.66;102415.06;2099771;28;603;-59
2022/05/08 03:59:20;;;;;;;;;;;;;;;21.76;31.47;102421.38;2099775;28;822;-59
2022/05/08 04:00:21;;;;;;;;;;;;;;;21.76;31.94;102417.75;2099831;28;858;-59
2022/05/08 04:01:21;;;;;;;;;;;;;;;22.24;31.29;102424.28;2099751;28;945;-59
2022/05/08 04:02:21;;;;;;;;;;;;;;;23.08;29.48;102424.66;2099776;28;1029;-59
2022/05/08 04:03:21;;;;;;;;;;;;;;;23.69;29.53;102423.44;2099154;28;759;-59
2022/05/08 04:04:22;;;;;;;;;;;;;;;24.06;28.20;102416.34;2099732;28;1036;-58
2022/05/08 04:05:22;;;;;;;;;;;;;;;24.38;27.62;102417.41;2099760;28;898;-58
2022/05/08 04:06:22;;;;;;;;;;;;;;;24.58;27.61;102420.47;2099727;28;996;-58
2022/05/08 04:07:22;;;;;;;;;;;;;;;24.84;26.58;102428.88;2099713;28;810;-59
2022/05/08 04:08:22;;;;;;;;;;;;;;;24.97;26.87;102416.78;2098933;28;1932;-59
2022/05/08 04:09:23;;;;;;;;;;;;;;;25.23;26.79;102423.31;2099105;28;839;-58
2022/05/08 04:10:23;;;;;;;;;;;;;;;25.45;25.67;102419.97;2099712;28;1024;-58
2022/05/08 04:11:23;;;;;;;;;;;;;;;25.75;25.88;102414.59;2099725;28;763;-59
2022/05/08 04:12:23;;;;;;;;;;;;;;;25.90;25.25;102424.97;2099683;28;767;-59
2022/05/08 04:13:24;;;;;;;;;;;;;;;26.02;25.71;102420.06;2099643;28;981;-58
2022/05/08 04:14:24;;;;;;;;;;;;;;;26.19;25.01;102420.44;2099651;28;1040;-58
2022/05/08 04:16:43;;;;;;;;;;;;;;;26.54;24.35;102430.16;2099679;28;676;-59
2022/05/08 04:17:43;;;;;;;;;;;;;;;26.67;24.45;102425.22;2099680;28;980;-59
2022/05/08 04:18:43;;;;;;;;;;;;;;;26.81;24.08;102428.31;2099668;28;973;-59
2022/05/08 04:19:43;;;;;;;;;;;;;;;26.90;23.74;102433.47;2099535;28;1369;-59
2022/05/08 04:20:43;;;;;;;;;;;;;;;27.04;24.23;102433.00;2099638;28;944;-59
2022/05/08 04:21:44;;;;;;;;;;;;;;;27.06;24.09;102428.41;2099608;28;977;-59
2022/05/08 04:24:18;;;;;;;;;;;;;;;27.34;22.98;102427.34;2099690;28;645;-59
2022/05/08 04:25:18;;;;;;;;;;;;;;;27.44;23.53;102429.72;2099616;28;902;-59
2022/05/08 04:26:18;;;;;;;;;;;;;;;27.54;23.08;102431.19;2099409;28;1161;-59
2022/05/08 04:27:18;;;;;;;;;;;;;;;27.59;22.76;102431.91;2099623;28;965;-59
2022/05/08 04:28:19;;;;;;;;;;;;;;;27.71;22.84;102426.91;2099519;28;1977;-59
2022/05/08 04:29:19;;;;;;;;;;;;;;;27.79;22.79;102432.94;2099552;28;768;-59
2022/05/08 04:30:19;;;;;;;;;;;;;;;27.80;22.88;102435.63;2099578;28;700;-59
2022/05/08 04:31:19;;;;;;;;;;;;;;;27.90;23.51;102433.41;2099572;28;1248;-59
2022/05/08 04:32:20;;;;;;;;;;;;;;;27.91;22.65;102435.19;2099635;28;843;-59
2022/05/08 04:33:20;;;;;;;;;;;;;;;27.94;22.47;102437.78;2099599;28;886;-59
2022/05/08 04:34:20;;;;;;;;;;;;;;;28.06;22.56;102441.84;2099525;28;1032;-59
2022/05/08 04:35:20;;;;;;;;;;;;;;;28.16;22.02;102444.22;2099514;28;675;-59
2022/05/08 04:36:20;;;;;;;;;;;;;;;28.26;22.04;102434.72;2100131;28;858;-59
2022/05/08 04:37:20;;;;;;;;;;;;;;;28.42;21.82;102443.13;2099437;28;1278;-59
2022/05/08 04:38:21;;;;;;;;;;;;;;;28.31;21.62;102439.97;2099548;28;814;-59
2022/05/08 04:39:21;;;;;;;;;;;;;;;28.33;21.49;102447.16;2099510;28;823;-59
2022/05/08 04:40:21;;;;;;;;;;;;;;;28.43;21.72;102446.75;2099522;28;1028;-59
2022/05/08 04:41:21;;;;;;;;;;;;;;;28.43;21.65;102444.03;2099562;28;880;-59
2022/05/08 04:42:21;;;;;;;;;;;;;;;28.46;21.73;102452.97;2099543;28;839;-59
2022/05/08 04:43:22;;;;;;;;;;;;;;;28.57;21.54;102449.75;2099502;28;756;-59
2022/05/08 04:44:22;;;;;;;;;;;;;;;28.54;21.22;102448.06;2099504;28;984;-59
2022/05/08 04:45:22;;;;;;;;;;;;;;;28.52;21.88;102447.25;2099533;28;807;-59
2022/05/08 04:46:22;;;;;;;;;;;;;;;28.61;21.50;102442.38;2099529;28;956;-59
2022/05/08 04:47:22;;;;;;;;;;;;;;;28.60;21.27;102440.59;2099533;28;1023;-59
2022/05/08 04:48:22;;;;;;;;;;;;;;;28.70;21.27;102447.41;2099426;28;1959;-59
2022/05/08 04:49:22;;;;;;;;;;;;;;;28.96;21.32;102445.41;2099484;28;1059;-59
2022/05/08 04:50:23;;;;;;;;;;;;;;;28.90;21.39;102441.13;2099509;28;779;-59
2022/05/08 04:51:23;;;;;;;;;;;;;;;28.84;21.16;102442.28;2099485;28;768;-59
2022/05/08 04:52:23;;;;;;;;;;;;;;;28.97;21.41;102444.44;2099504;28;755;-59
2022/05/08 04:53:23;;;;;;;;;;;;;;;29.02;21.15;102447.88;2099500;28;984;-59
2022/05/08 04:54:24;;;;;;;;;;;;;;;28.96;20.61;102443.59;2099477;28;803;-59
2022/05/08 04:55:24;;;;;;;;;;;;;;;28.92;20.82;102436.50;2099420;28;791;-59
2022/05/08 04:56:24;;;;;;;;;;;;;;;28.97;21.18;102447.19;2099441;28;830;-59
2022/05/08 04:57:24;;;;;;;;;;;;;;;29.09;21.16;102446.63;2098772;28;1028;-59
2022/05/08 04:58:29;;;;;;;;;;;;;;;29.06;20.83;102444.03;2098880;28;890;-59
2022/05/08 04:59:29;;;;;;;;;;;;;;;29.06;20.72;102448.63;2099404;28;791;-59
2022/05/08 05:00:29;;;;;;;;;;;;;;;29.14;20.69;102441.88;2099438;28;830;-59
2022/05/08 05:01:29;;;;;;;;;;;;;;;29.14;20.27;102443.72;2099447;28;842;-59
2022/05/08 05:02:30;;;;;;;;;;;;;;;29.32;20.27;102436.53;2099428;28;1063;-59
2022/05/08 05:03:30;;;;;;;;;;;;;;;29.09;20.84;102437.59;2099565;28;799;-59
2022/05/08 05:04:30;;;;;;;;;;;;;;;29.24;20.17;102446.91;2099424;28;906;-59
2022/05/08 05:05:30;;;;;;;;;;;;;;;29.25;20.70;102443.22;2098737;28;1040;-59
2022/05/08 05:06:30;;;;;;;;;;;;;;;29.23;20.86;102442.41;2098803;28;989;-59
2022/05/08 05:07:30;;;;;;;;;;;;;;;29.34;20.51;102442.81;2099411;28;827;-59
2022/05/08 05:08:30;;;;;;;;;;;;;;;29.32;20.69;102441.09;2099311;28;1981;-59
2022/05/08 05:09:31;;;;;;;;;;;;;;;29.24;20.43;102441.44;2099426;28;1040;-59
2022/05/08 05:10:31;;;;;;;;;;;;;;;29.10;20.96;102437.50;2099390;28;810;-59
2022/05/08 05:11:31;;;;;;;;;;;;;;;29.12;20.68;102441.03;2099351;28;935;-59
2022/05/08 05:12:31;;;;;;;;;;;;;;;29.22;20.90;102448.81;2099399;28;847;-59
2022/05/08 05:13:31;;;;;;;;;;;;;;;29.28;20.20;102448.53;2099367;28;1047;-59
2022/05/08 05:14:32;;;;;;;;;;;;;;;29.26;20.64;102450.44;2099393;28;905;-59
2022/05/08 05:15:32;;;;;;;;;;;;;;;29.29;20.76;102450.31;2099735;28;775;-59
2022/05/08 05:16:33;;;;;;;;;;;;;;;29.23;20.40;102437.81;2101068;28;775;-60
2022/05/08 05:17:33;;;;;;;;;;;;;;;29.18;20.96;102450.78;2101092;28;976;-59
2022/05/08 05:18:33;;;;;;;;;;;;;;;29.25;20.30;102443.22;2101054;28;787;-59
2022/05/08 05:19:33;;;;;;;;;;;;;;;29.28;20.44;102448.53;2101453;28;902;-59
2022/05/08 05:20:33;;;;;;;;;;;;;;;29.61;20.66;102447.94;2102167;28;984;-59
2022/05/08 05:21:33;;;;;;;;;;;;;;;29.44;20.40;102454.19;2101065;28;984;-59
2022/05/08 05:22:33;;;;;;;;;;;;;;;29.40;19.94;102448.00;2101026;28;822;-59
2022/05/08 05:23:35;;;;;;;;;;;;;;;29.35;20.25;102449.13;2101053;28;806;-59
2022/05/08 05:24:35;;;;;;;;;;;;;;;29.26;20.87;102453.19;2101042;28;826;-59
2022/05/08 05:25:35;;;;;;;;;;;;;;;29.38;20.34;102462.66;2100972;28;779;-59
2022/05/08 05:26:36;;;;;;;;;;;;;;;29.39;20.45;102458.97;2100838;28;1338;-59